Pagina principale
METAR-TAF:

METAR-TAF

Aeroporti :

Corfù, Grecia

Aeroporto di Corfù-Giovanni Capodistria

latitudine: 39-37N, longitudine: 019-55E, altezza: 2 m

Osservazione

Il bollettino è stato emesso 39 minuti fa, alle 08:50 UTC
Vento 7 kt da nord-est
Temperature 25°C
Umidità 47%
Pressione 1017 hPa
Visibilità 10 km o più
Poco nuvoloso ad un'altezza di 2500 ft

METAR: LGKR 290850Z 04007KT 9999 FEW025 25/13 Q1017 NOSIG

Ora: 12:29 (09:29 UTC)

Previsione

Il bollettino è stato emesso 4 ore e 29 minuti fa, alle 05:00 UTC
Previsione valida dal 29 alle 06 UTC al 30 alle 06 UTC
Vento 3 kt da direzioni variabili
Visibilità 10 km o più
Poco nuvoloso ad un'altezza di 3500 ft
Temporaneamente
dal 29 alle 06 UTC al 30 alle 06 UTC
Nubi sparse ad un'altezza di 2000 ft
Evoluzione graduale
dal 29 alle 10 UTC al 29 alle 12 UTC
Vento 10 kt da nord/nord-ovest

TAF: LGKR 290500Z 2906/3006 VRB03KT 9999 FEW035 TEMPO 2906/3006 SCT020 BECMG 2910/2912 34010KT

Osservazioni e previsioni meteorologiche di più di 4000 aeroporti (messaggi METAR e TAF).

Le stazioni disponibili sono rappresentate dai dischi gialli e rossi sulla carta.

Puntare il mouse per vedere il nome della stazione.

Clicca sopra per visualizzare le osservazioni e previsioni meteorologiche.

Per cambiare la mappa : fare clic sui pulsanti verdi con una croce nera per ingrandire, il pulsante verde con un trattino per diminuire, o sulla freccia verde per le mappe adiacenti.


METAR-TAF: